Time;durP1;ratioP1;P1;durP2;ratioP2;P2;SDS_P1;SDS_P2;PMS_P1;PMS_P2;Temp;Humidity;BMP_temperature;BMP_pressure;BME280_temperature;BME280_humidity;BME280_pressure;Samples;Min_cycle;Max_cycle;Signal;HPM_P1;HPM_P2
2022/10/16 00:01:19;;;;;;;7.07;3.17;;;13.30;93.70;;;;;;5092686;28;20567;-39
2022/10/16 00:03:45;;;;;;;6.28;3.25;;;13.20;93.70;;;;;;5092550;28;20024;-41
2022/10/16 00:06:12;;;;;;;10.90;4.50;;;13.30;93.80;;;;;;5092148;28;20035;-39
2022/10/16 00:08:38;;;;;;;8.80;4.05;;;13.30;93.80;;;;;;5093909;28;20054;-39
2022/10/16 00:11:06;;;;;;;5.78;3.13;;;13.30;93.70;;;;;;5093588;28;20103;-40
2022/10/16 00:13:33;;;;;;;6.68;3.38;;;13.30;93.80;;;;;;5093301;28;20031;-41
2022/10/16 00:16:00;;;;;;;6.90;3.97;;;13.20;93.70;;;;;;5093444;28;20099;-39
2022/10/16 00:18:26;;;;;;;9.23;5.20;;;13.20;93.70;;;;;;5093305;28;20020;-39
2022/10/16 00:20:52;;;;;;;12.88;5.38;;;13.20;93.80;;;;;;5093398;28;20092;-40
2022/10/16 00:23:19;;;;;;;8.02;4.13;;;13.20;93.80;;;;;;5093543;28;20020;-40
2022/10/16 00:25:45;;;;;;;10.38;4.45;;;13.10;93.90;;;;;;5093320;28;20056;-40
2022/10/16 00:28:10;;;;;;;8.45;3.83;;;13.10;93.90;;;;;;5075269;28;20020;-41
2022/10/16 00:30:39;;;;;;;7.88;4.05;;;13.10;93.90;;;;;;5093835;28;20035;-40
2022/10/16 00:33:05;;;;;;;7.97;4.00;;;13.10;93.90;;;;;;5093258;28;20099;-40
2022/10/16 00:35:31;;;;;;;8.73;4.70;;;13.00;93.90;;;;;;5093219;28;20158;-39
2022/10/16 00:37:57;;;;;;;8.73;4.25;;;12.90;93.90;;;;;;5093147;28;20024;-42
2022/10/16 00:40:22;;;;;;;6.15;3.58;;;13.00;93.90;;;;;;5093349;28;20027;-39
2022/10/16 00:42:48;;;;;;;7.10;3.35;;;13.00;94.00;;;;;;5093413;28;20026;-40
2022/10/16 00:45:14;;;;;;;4.38;3.25;;;13.00;93.90;;;;;;5093759;28;20020;-40
2022/10/16 00:47:47;;;;;;;4.57;3.10;;;13.00;93.90;;;;;;5093157;28;20395;-39
2022/10/16 00:50:33;;;;;;;7.05;3.63;;;13.00;94.00;;;;;;5093021;28;20031;-41
2022/10/16 00:53:01;;;;;;;9.00;3.58;;;12.90;93.90;;;;;;5091642;28;20031;-40
2022/10/16 00:55:29;;;;;;;6.97;3.58;;;12.90;94.00;;;;;;5092762;28;20090;-39
2022/10/16 00:57:56;;;;;;;8.27;4.60;;;12.80;94.00;;;;;;5092804;28;20032;-38
2022/10/16 01:00:25;;;;;;;11.20;4.40;;;12.80;94.00;;;;;;5092668;28;20027;-40
2022/10/16 01:02:59;;;;;;;7.97;4.10;;;12.80;94.10;;;;;;5092658;28;20059;-40
2022/10/16 01:05:39;;;;;;;9.63;3.60;;;12.80;94.00;;;;;;5091214;28;20031;-39
2022/10/16 01:08:25;;;;;;;7.97;3.50;;;12.80;94.10;;;;;;5092706;28;20107;-39
2022/10/16 01:11:22;;;;;;;4.85;2.60;;;12.80;94.10;;;;;;5091354;28;20028;-38
2022/10/16 01:13:55;;;;;;;11.93;3.15;;;12.80;94.10;;;;;;5092466;28;20127;-39
2022/10/16 01:16:38;;;;;;;4.70;3.00;;;12.90;94.10;;;;;;5095009;28;20028;-39
2022/10/16 01:19:17;;;;;;;7.95;2.65;;;12.90;94.00;;;;;;5097051;28;20024;-39
2022/10/16 01:21:46;;;;;;;6.53;2.88;;;13.00;93.90;;;;;;5095341;28;20357;-38
2022/10/16 01:24:32;;;;;;;9.43;3.35;;;12.90;93.80;;;;;;5096745;28;20028;-39
2022/10/16 01:27:06;;;;;;;6.30;2.70;;;12.90;93.70;;;;;;5096614;28;20028;-39
2022/10/16 01:29:32;;;;;;;10.93;3.03;;;13.00;93.70;;;;;;5095337;28;20036;-39
2022/10/16 01:32:01;;;;;;;4.50;2.83;;;13.00;93.70;;;;;;5096398;28;20028;-39
2022/10/16 01:34:35;;;;;;;6.53;2.88;;;13.00;93.50;;;;;;5095299;28;20031;-40
2022/10/16 01:37:11;;;;;;;3.63;2.53;;;13.00;93.30;;;;;;5095441;28;20027;-38
2022/10/16 01:39:40;;;;;;;3.60;2.35;;;13.00;93.50;;;;;;5096827;28;20024;-39
2022/10/16 01:42:12;;;;;;;4.50;2.17;;;12.90;93.40;;;;;;5096783;28;20410;-40
2022/10/16 01:44:39;;;;;;;13.85;3.03;;;12.90;93.50;;;;;;5096803;28;20020;-39
2022/10/16 01:47:08;;;;;;;8.82;2.63;;;12.90;93.50;;;;;;5096747;28;20555;-40
2022/10/16 01:49:37;;;;;;;8.35;2.75;;;12.90;93.50;;;;;;5096493;28;20131;-40
2022/10/16 01:52:08;;;;;;;9.23;3.20;;;12.90;93.60;;;;;;5096103;28;20024;-39
2022/10/16 01:54:37;;;;;;;2.50;1.92;;;12.80;93.50;;;;;;5095893;28;20534;-39
2022/10/16 01:57:05;;;;;;;5.93;2.58;;;12.90;93.50;;;;;;5096095;28;20429;-41
2022/10/16 01:59:36;;;;;;;6.07;2.15;;;12.90;93.40;;;;;;5096259;28;20099;-40
2022/10/16 02:02:07;;;;;;;7.05;2.28;;;12.90;93.40;;;;;;5096179;28;20016;-39
2022/10/16 02:04:42;;;;;;;3.60;2.30;;;12.90;93.50;;;;;;5096061;28;20123;-39
2022/10/16 02:07:08;;;;;;;5.03;2.25;;;12.90;93.40;;;;;;5096206;28;20025;-39
2022/10/16 02:09:35;;;;;;;5.55;2.22;;;12.90;93.30;;;;;;5096098;28;20024;-39
2022/10/16 02:12:13;;;;;;;4.95;2.33;;;12.80;93.20;;;;;;5095791;28;20073;-40
2022/10/16 02:14:40;;;;;;;3.75;2.22;;;12.80;93.40;;;;;;5094296;28;20484;-39
2022/10/16 02:17:14;;;;;;;9.88;2.53;;;12.70;93.40;;;;;;5095978;28;20021;-38
2022/10/16 02:19:41;;;;;;;4.38;2.20;;;12.60;93.50;;;;;;5095757;28;20027;-39
2022/10/16 02:22:10;;;;;;;1.95;1.67;;;12.70;93.60;;;;;;5095639;28;20436;-39
2022/10/16 02:24:43;;;;;;;2.33;1.63;;;12.70;93.70;;;;;;5095589;28;20028;-38
2022/10/16 02:27:11;;;;;;;2.13;1.42;;;12.80;93.70;;;;;;5095062;28;20041;-40
2022/10/16 02:29:44;;;;;;;3.75;1.95;;;12.90;93.30;;;;;;5095506;28;20039;-38
2022/10/16 02:32:12;;;;;;;4.78;1.95;;;13.00;93.20;;;;;;5094528;28;20103;-39
2022/10/16 02:34:40;;;;;;;9.55;1.80;;;13.10;92.90;;;;;;5095260;28;20035;-39
2022/10/16 02:37:07;;;;;;;5.68;1.70;;;13.10;92.50;;;;;;5095585;28;20027;-39
2022/10/16 02:39:34;;;;;;;3.95;2.28;;;13.10;92.50;;;;;;5095083;28;20044;-39
2022/10/16 02:41:59;;;;;;;4.68;1.35;;;13.10;92.30;;;;;;5095182;28;20031;-39
2022/10/16 02:44:25;;;;;;;2.72;1.48;;;13.00;92.30;;;;;;5095243;28;20032;-39
2022/10/16 02:46:51;;;;;;;1.58;1.48;;;13.20;92.20;;;;;;5095176;28;20357;-38
2022/10/16 02:49:17;;;;;;;1.63;1.50;;;13.20;92.00;;;;;;5095060;28;20051;-38
2022/10/16 02:51:43;;;;;;;4.78;1.27;;;13.20;91.80;;;;;;5095320;28;20107;-39
2022/10/16 02:54:08;;;;;;;2.05;1.52;;;13.20;91.90;;;;;;5095328;28;20607;-39
2022/10/16 02:56:34;;;;;;;1.10;1.00;;;13.20;91.70;;;;;;5095280;28;20464;-40
2022/10/16 02:59:00;;;;;;;2.60;1.70;;;13.10;91.70;;;;;;5095335;28;20073;-39
2022/10/16 03:01:25;;;;;;;2.30;1.27;;;13.00;91.80;;;;;;5093659;28;20056;-39
2022/10/16 03:03:51;;;;;;;1.73;1.42;;;13.10;91.90;;;;;;5095537;28;20480;-39
2022/10/16 03:06:17;;;;;;;2.30;1.80;;;13.00;92.00;;;;;;5095598;28;20078;-40
2022/10/16 03:08:42;;;;;;;2.72;1.17;;;13.00;92.10;;;;;;5095092;28;20063;-40
2022/10/16 03:11:08;;;;;;;2.13;1.48;;;13.10;92.20;;;;;;5094026;28;20028;-39
2022/10/16 03:13:34;;;;;;;1.50;1.30;;;13.10;92.10;;;;;;5095409;28;20464;-39
2022/10/16 03:15:59;;;;;;;3.03;1.60;;;13.10;92.00;;;;;;5095370;28;20016;-38
2022/10/16 03:18:25;;;;;;;1.65;1.00;;;13.10;91.80;;;;;;5095463;28;20024;-39
2022/10/16 03:20:50;;;;;;;2.67;1.02;;;13.20;91.90;;;;;;5095437;28;20023;-38
2022/10/16 03:23:16;;;;;;;3.45;1.65;;;13.20;91.80;;;;;;5093577;28;20484;-38
2022/10/16 03:25:42;;;;;;;8.18;1.42;;;13.10;91.80;;;;;;5095632;28;20139;-40
2022/10/16 03:28:08;;;;;;;1.35;1.23;;;13.20;91.70;;;;;;5095360;28;20080;-40
2022/10/16 03:30:33;;;;;;;2.78;1.33;;;13.20;91.50;;;;;;5095608;28;20058;-39
2022/10/16 03:32:59;;;;;;;6.28;1.42;;;13.20;91.50;;;;;;5095396;28;20023;-39
2022/10/16 03:35:25;;;;;;;7.50;1.65;;;13.20;91.50;;;;;;5095222;28;20035;-39
2022/10/16 03:37:51;;;;;;;2.78;1.15;;;13.30;91.40;;;;;;5094270;28;20020;-38
2022/10/16 03:40:17;;;;;;;2.03;1.20;;;13.30;91.30;;;;;;5094448;28;20464;-39
2022/10/16 03:42:43;;;;;;;1.83;1.73;;;13.30;91.00;;;;;;5092837;28;20115;-40
2022/10/16 03:45:10;;;;;;;1.40;1.08;;;13.30;90.90;;;;;;5094373;28;20070;-39
2022/10/16 03:47:36;;;;;;;5.10;1.38;;;13.20;91.00;;;;;;5094116;28;20050;-39
2022/10/16 03:50:03;;;;;;;2.17;1.13;;;13.30;91.00;;;;;;5094308;28;20493;-39
2022/10/16 03:52:28;;;;;;;1.88;1.15;;;13.20;91.00;;;;;;5094151;28;20034;-40
2022/10/16 03:54:54;;;;;;;4.28;1.30;;;13.20;90.90;;;;;;5093765;28;20543;-39
2022/10/16 03:57:20;;;;;;;6.25;1.45;;;13.30;90.60;;;;;;5094436;28;20107;-40
2022/10/16 03:59:46;;;;;;;2.05;1.48;;;13.30;90.60;;;;;;5093752;28;20468;-39
2022/10/16 04:02:12;;;;;;;4.85;1.10;;;13.30;90.50;;;;;;5094086;28;20020;-39
2022/10/16 04:04:38;;;;;;;1.65;1.38;;;13.30;90.40;;;;;;5075471;28;20080;-39
2022/10/16 04:07:03;;;;;;;1.27;1.15;;;13.30;90.40;;;;;;5093864;28;20024;-39
2022/10/16 04:09:29;;;;;;;0.82;0.80;;;13.30;90.30;;;;;;5092234;28;20428;-39
2022/10/16 04:11:55;;;;;;;1.30;1.08;;;13.30;90.20;;;;;;5093870;28;20028;-37
2022/10/16 04:14:20;;;;;;;5.28;1.08;;;13.30;90.20;;;;;;5092537;28;20024;-40
2022/10/16 04:16:46;;;;;;;2.47;1.45;;;13.30;90.00;;;;;;5093734;28;20016;-39
2022/10/16 04:19:12;;;;;;;1.35;1.20;;;13.20;90.20;;;;;;5093854;28;20043;-40
2022/10/16 04:21:37;;;;;;;2.85;1.20;;;13.20;90.30;;;;;;5095402;28;20356;-39
2022/10/16 04:24:03;;;;;;;1.27;1.10;;;13.30;90.30;;;;;;5094276;28;20490;-39
2022/10/16 04:26:29;;;;;;;3.05;1.55;;;13.30;89.90;;;;;;5092581;28;20020;-39
2022/10/16 04:28:55;;;;;;;1.75;1.00;;;13.30;90.00;;;;;;5094226;28;20032;-41
2022/10/16 04:31:21;;;;;;;2.67;1.42;;;13.30;89.90;;;;;;5093987;28;20020;-40
2022/10/16 04:33:47;;;;;;;8.00;1.80;;;13.30;89.80;;;;;;5093874;28;20047;-39
2022/10/16 04:36:13;;;;;;;1.27;1.10;;;13.20;90.10;;;;;;5094188;28;20058;-40
2022/10/16 04:38:39;;;;;;;1.30;1.17;;;13.30;89.90;;;;;;5093940;28;20112;-39
2022/10/16 04:41:06;;;;;;;1.60;1.40;;;13.30;90.10;;;;;;5094346;28;20024;-38
2022/10/16 04:43:32;;;;;;;2.83;1.30;;;13.20;90.10;;;;;;5093672;28;20093;-38
2022/10/16 04:45:58;;;;;;;1.67;1.23;;;13.20;90.20;;;;;;5093793;28;20024;-45
2022/10/16 04:48:23;;;;;;;2.80;1.42;;;13.30;89.90;;;;;;5094371;28;20027;-39
2022/10/16 04:50:49;;;;;;;3.92;1.60;;;13.20;90.00;;;;;;5093988;28;20024;-42
2022/10/16 04:53:15;;;;;;;1.60;1.48;;;13.30;89.90;;;;;;5093710;28;20028;-39
2022/10/16 04:55:41;;;;;;;1.98;1.35;;;13.30;89.90;;;;;;5093422;28;20491;-39
2022/10/16 04:58:07;;;;;;;1.50;1.38;;;13.30;89.70;;;;;;5093476;28;20020;-38
2022/10/16 05:00:33;;;;;;;5.53;1.45;;;13.30;89.70;;;;;;5093686;28;20024;-40
2022/10/16 05:03:00;;;;;;;2.22;1.20;;;13.30;89.70;;;;;;5093351;28;20104;-39
2022/10/16 05:05:26;;;;;;;0.95;0.88;;;13.30;89.60;;;;;;5093998;28;20031;-38
2022/10/16 05:07:53;;;;;;;1.27;0.73;;;13.30;89.50;;;;;;5092327;28;20060;-39
2022/10/16 05:10:19;;;;;;;2.03;1.42;;;13.30;89.70;;;;;;5093629;28;20024;-38
2022/10/16 05:12:45;;;;;;;10.30;1.17;;;13.30;89.80;;;;;;5092332;28;20024;-40
2022/10/16 05:15:11;;;;;;;1.80;1.27;;;13.30;89.80;;;;;;5093727;28;20020;-39
2022/10/16 05:17:37;;;;;;;3.55;1.50;;;13.30;89.80;;;;;;5093537;28;20058;-39
2022/10/16 05:20:03;;;;;;;1.50;1.15;;;13.30;89.90;;;;;;5093363;28;20022;-39
2022/10/16 05:22:29;;;;;;;3.25;1.00;;;13.30;89.80;;;;;;5093044;28;20027;-38
2022/10/16 05:24:54;;;;;;;1.10;0.98;;;13.30;89.60;;;;;;5091830;28;20028;-40
2022/10/16 05:27:20;;;;;;;2.10;1.48;;;13.30;89.40;;;;;;5093458;28;20020;-39
2022/10/16 05:29:47;;;;;;;1.88;1.17;;;13.30;89.50;;;;;;5091957;28;20020;-39
2022/10/16 05:32:15;;;;;;;6.47;1.77;;;13.30;89.40;;;;;;5093022;28;20370;-40
2022/10/16 05:34:40;;;;;;;1.05;0.98;;;13.30;89.40;;;;;;5093653;28;20027;-39
2022/10/16 05:37:06;;;;;;;2.33;0.93;;;13.30;89.40;;;;;;5094522;28;20028;-39
2022/10/16 05:39:31;;;;;;;3.60;2.45;;;13.30;89.60;;;;;;5093524;28;20031;-38
2022/10/16 05:41:57;;;;;;;3.00;1.10;;;13.30;89.60;;;;;;5093406;28;20028;-40
2022/10/16 16:53:06;;;;;;;8.68;3.42;;;16.30;78.40;;;;;;5104167;27;20357;-39
2022/10/16 16:55:33;;;;;;;10.15;2.92;;;16.20;78.50;;;;;;5070892;28;20468;-42
2022/10/16 16:57:58;;;;;;;5.90;3.33;;;16.30;78.80;;;;;;5070601;28;20036;-41
2022/10/16 17:00:24;;;;;;;7.63;2.92;;;16.20;78.90;;;;;;5071227;28;20043;-39
2022/10/16 17:02:50;;;;;;;14.40;3.92;;;16.20;79.30;;;;;;5071054;28;20025;-39
2022/10/16 17:05:17;;;;;;;9.77;5.00;;;16.30;79.60;;;;;;5053546;28;20025;-39
2022/10/16 17:07:43;;;;;;;16.92;8.90;;;16.20;79.70;;;;;;5070787;28;20052;-39
2022/10/16 17:10:09;;;;;;;24.42;12.30;;;16.10;79.80;;;;;;5070608;28;20064;-39
2022/10/16 17:12:35;;;;;;;26.30;12.32;;;16.10;80.10;;;;;;5070183;28;20051;-40
2022/10/16 17:15:01;;;;;;;23.50;10.23;;;16.10;80.20;;;;;;5070890;28;20021;-39
2022/10/16 17:17:27;;;;;;;13.80;6.78;;;16.00;80.70;;;;;;5070688;28;20500;-40
2022/10/16 17:19:53;;;;;;;12.02;6.30;;;16.00;81.00;;;;;;5071606;28;20025;-39
2022/10/16 17:22:19;;;;;;;17.45;8.13;;;16.00;81.30;;;;;;5070385;28;20103;-39
2022/10/16 17:24:49;;;;;;;22.02;10.25;;;16.10;81.20;;;;;;5070420;28;20155;-39
2022/10/16 17:27:15;;;;;;;19.20;9.38;;;16.10;81.10;;;;;;5085309;28;20040;-47
2022/10/16 17:29:41;;;;;;;14.45;7.93;;;16.20;81.30;;;;;;5069623;28;20029;-38
2022/10/16 17:32:07;;;;;;;11.77;6.10;;;16.20;81.00;;;;;;5070100;28;20108;-40
2022/10/16 17:34:34;;;;;;;15.45;7.70;;;16.20;80.80;;;;;;5068386;28;20028;-41
2022/10/16 17:37:00;;;;;;;13.93;6.35;;;16.20;80.90;;;;;;5070018;28;20468;-40
2022/10/16 17:39:25;;;;;;;10.68;5.55;;;16.20;80.90;;;;;;5069909;28;20020;-39
2022/10/16 17:41:51;;;;;;;13.30;5.30;;;16.20;80.90;;;;;;5070215;28;20086;-39
2022/10/16 17:44:20;;;;;;;18.90;7.85;;;16.20;81.00;;;;;;5069597;28;20033;-39
2022/10/16 17:46:52;;;;;;;9.90;4.97;;;16.00;81.30;;;;;;5069568;28;20370;-40
2022/10/16 17:49:19;;;;;;;9.90;4.22;;;16.00;81.20;;;;;;5069709;28;20025;-39
2022/10/16 17:51:45;;;;;;;8.48;4.68;;;16.00;81.00;;;;;;5068844;28;20041;-40
2022/10/16 17:54:13;;;;;;;13.30;5.30;;;15.90;81.10;;;;;;5068954;28;20036;-40
2022/10/16 17:56:39;;;;;;;5.30;3.95;;;16.00;81.00;;;;;;5067685;28;20025;-41
2022/10/16 17:59:06;;;;;;;8.43;4.68;;;16.00;81.00;;;;;;5068908;28;20365;-40
2022/10/16 18:01:39;;;;;;;9.07;4.20;;;16.00;80.60;;;;;;5069394;28;20028;-40
2022/10/16 18:04:11;;;;;;;10.60;4.18;;;16.00;80.60;;;;;;5058387;28;20032;-40
2022/10/16 18:06:38;;;;;;;12.55;4.50;;;16.00;80.60;;;;;;5055978;28;20068;-40
2022/10/16 18:09:06;;;;;;;9.77;4.28;;;16.00;80.80;;;;;;5055642;28;20365;-41
2022/10/16 18:11:33;;;;;;;7.80;4.40;;;16.00;80.50;;;;;;5054127;28;20032;-40
2022/10/16 18:13:59;;;;;;;10.75;3.78;;;16.10;80.20;;;;;;5055834;28;20587;-41
2022/10/16 18:16:27;;;;;;;7.07;3.90;;;16.00;80.30;;;;;;5055760;28;20021;-39
2022/10/16 18:18:55;;;;;;;8.20;5.30;;;16.00;80.50;;;;;;5056628;28;20032;-50
2022/10/16 18:21:21;;;;;;;8.07;5.15;;;15.90;80.40;;;;;;5056566;28;20025;-48
2022/10/16 18:23:48;;;;;;;8.85;5.45;;;16.00;80.80;;;;;;5056381;28;20108;-49
2022/10/16 18:26:14;;;;;;;8.27;5.32;;;15.90;80.80;;;;;;5055813;28;20132;-49
2022/10/16 18:28:40;;;;;;;6.20;4.05;;;15.90;81.00;;;;;;5055741;28;20021;-49
2022/10/16 18:31:10;;;;;;;9.27;4.13;;;16.00;80.70;;;;;;5054159;28;20034;-51
2022/10/16 18:33:36;;;;;;;7.53;4.60;;;15.90;80.10;;;;;;5055087;28;20017;-49
2022/10/16 18:36:04;;;;;;;5.97;2.95;;;16.00;79.80;;;;;;5055592;28;20479;-49
2022/10/16 18:38:30;;;;;;;9.13;4.65;;;16.00;79.70;;;;;;5054001;28;20025;-48
2022/10/16 18:40:57;;;;;;;7.78;3.53;;;16.00;79.60;;;;;;5055342;28;20428;-48
2022/10/16 18:43:23;;;;;;;9.55;4.95;;;16.00;79.60;;;;;;5055917;28;20017;-48
2022/10/16 18:45:59;;;;;;;6.00;3.45;;;16.00;79.70;;;;;;5054505;28;20021;-49
2022/10/16 18:48:26;;;;;;;7.60;2.72;;;15.90;79.90;;;;;;5053890;28;20051;-50
2022/10/16 18:50:52;;;;;;;6.55;2.95;;;15.90;79.90;;;;;;5054979;28;20017;-49
2022/10/16 18:53:18;;;;;;;5.75;3.28;;;15.90;79.80;;;;;;5055336;28;20373;-48
2022/10/16 18:55:51;;;;;;;9.55;3.92;;;15.90;80.00;;;;;;5054715;28;20021;-50
2022/10/16 18:58:17;;;;;;;8.57;4.25;;;15.80;80.10;;;;;;5054852;28;20074;-51
2022/10/16 19:00:43;;;;;;;5.85;3.03;;;15.90;80.10;;;;;;5055009;28;20021;-48
2022/10/16 19:03:08;;;;;;;10.45;2.72;;;15.90;80.00;;;;;;5054837;28;20053;-50
2022/10/16 19:05:34;;;;;;;6.53;2.58;;;15.90;79.90;;;;;;5054913;28;20023;-48
2022/10/16 19:08:00;;;;;;;4.53;2.92;;;16.00;80.00;;;;;;5054393;28;20029;-49
2022/10/16 19:10:25;;;;;;;4.80;2.90;;;15.90;79.90;;;;;;5054337;28;20100;-50
2022/10/16 19:12:51;;;;;;;8.18;3.53;;;15.90;80.00;;;;;;5054334;28;20073;-51
2022/10/16 19:15:16;;;;;;;7.13;3.05;;;15.90;80.30;;;;;;5053717;28;20029;-51
2022/10/16 19:17:42;;;;;;;8.15;3.53;;;16.00;80.10;;;;;;5054646;28;20549;-49
2022/10/16 19:20:08;;;;;;;11.50;3.42;;;16.10;79.90;;;;;;5054264;28;20025;-51
2022/10/16 19:22:51;;;;;;;8.77;4.28;;;16.10;80.00;;;;;;5054163;28;20031;-49
2022/10/16 19:25:18;;;;;;;6.18;2.67;;;16.10;80.00;;;;;;5054318;28;20100;-50
2022/10/16 19:27:44;;;;;;;11.45;3.33;;;16.10;80.30;;;;;;5054408;28;20020;-50
2022/10/16 19:30:10;;;;;;;8.55;3.13;;;16.00;80.60;;;;;;5054121;28;20438;-51
2022/10/16 19:32:35;;;;;;;7.65;4.32;;;16.00;81.00;;;;;;5052837;28;20028;-48
2022/10/16 19:35:01;;;;;;;9.43;3.97;;;15.90;81.40;;;;;;5054602;28;20148;-48
2022/10/16 19:37:26;;;;;;;7.45;4.07;;;16.00;82.00;;;;;;5052607;28;20160;-49
2022/10/16 19:39:55;;;;;;;10.77;3.90;;;15.90;82.60;;;;;;5052671;28;20021;-51
2022/10/16 19:42:21;;;;;;;6.25;4.07;;;15.80;83.30;;;;;;5054501;28;20108;-49
2022/10/16 19:44:48;;;;;;;9.60;4.18;;;15.80;84.30;;;;;;5054343;28;20468;-52
2022/10/16 19:47:13;;;;;;;7.93;3.80;;;15.60;84.90;;;;;;5053558;28;20025;-48
2022/10/16 19:49:40;;;;;;;6.38;3.97;;;15.40;85.90;;;;;;5053593;28;20124;-51
2022/10/16 19:52:05;;;;;;;8.52;3.88;;;15.30;86.60;;;;;;5051983;28;20501;-54
2022/10/16 19:54:32;;;;;;;7.80;4.00;;;15.30;87.20;;;;;;5053813;28;20059;-53
2022/10/16 19:56:59;;;;;;;9.35;4.00;;;15.20;87.60;;;;;;5054675;28;20029;-48
2022/10/16 19:59:25;;;;;;;8.05;3.92;;;15.20;88.00;;;;;;5053641;28;20484;-50
2022/10/16 20:01:50;;;;;;;9.77;4.15;;;15.10;88.10;;;;;;5054094;28;20028;-52
2022/10/16 20:04:19;;;;;;;7.60;4.38;;;15.10;88.40;;;;;;5053670;28;20025;-53
2022/10/16 20:06:45;;;;;;;5.72;3.28;;;15.10;88.60;;;;;;5052556;28;20491;-50
2022/10/16 20:09:10;;;;;;;8.43;4.13;;;15.10;88.80;;;;;;5053393;28;20104;-50
2022/10/16 20:11:36;;;;;;;7.13;3.80;;;15.10;88.90;;;;;;5053138;28;20072;-51
2022/10/16 20:14:04;;;;;;;7.88;4.10;;;15.10;89.10;;;;;;5053607;28;20072;-50
2022/10/16 20:16:31;;;;;;;8.43;4.05;;;15.10;89.10;;;;;;5053959;28;20100;-49
2022/10/16 20:18:57;;;;;;;11.18;3.95;;;15.10;89.30;;;;;;5053036;28;20025;-49
2022/10/16 20:21:28;;;;;;;4.57;3.38;;;15.10;89.50;;;;;;5053271;28;20148;-51
2022/10/16 20:23:53;;;;;;;;;;;15.00;89.50;;;;;;5053449;28;20167;-50
2022/10/16 20:26:22;;;;;;;6.40;3.90;;;15.00;89.60;;;;;;5052832;28;19936;-54
2022/10/16 20:28:48;;;;;;;6.53;3.78;;;15.00;89.80;;;;;;5052726;28;20028;-52
2022/10/16 20:31:17;;;;;;;11.23;4.95;;;15.10;90.10;;;;;;5053085;28;20120;-49
2022/10/16 20:33:43;;;;;;;13.50;6.38;;;15.10;89.80;;;;;;5053130;28;20032;-53
2022/10/16 20:36:13;;;;;;;7.35;3.75;;;15.10;89.90;;;;;;5055001;28;20033;-49
2022/10/16 20:38:39;;;;;;;6.40;4.22;;;15.10;89.90;;;;;;5053270;28;20025;-49
2022/10/16 20:41:07;;;;;;;16.45;5.38;;;15.10;90.00;;;;;;5053008;28;20037;-49
2022/10/16 20:43:33;;;;;;;8.35;4.03;;;15.10;90.00;;;;;;5053043;28;20336;-51
2022/10/16 20:46:01;;;;;;;7.88;4.88;;;15.10;90.00;;;;;;5052673;28;20056;-49
2022/10/16 20:48:27;;;;;;;11.20;5.72;;;15.00;90.20;;;;;;5052708;28;20397;-49
2022/10/16 20:50:53;;;;;;;11.52;5.53;;;14.90;90.30;;;;;;5051210;28;20353;-49
2022/10/16 20:53:18;;;;;;;5.82;4.30;;;15.00;90.40;;;;;;5053139;28;20039;-50
2022/10/16 20:55:44;;;;;;;11.80;4.75;;;15.00;90.50;;;;;;5052947;28;20017;-51
2022/10/16 20:58:11;;;;;;;10.93;4.47;;;15.00;90.60;;;;;;5053044;28;20373;-50
2022/10/16 21:00:37;;;;;;;10.93;5.07;;;14.90;90.70;;;;;;5053051;28;20075;-49
2022/10/16 21:03:03;;;;;;;8.07;4.30;;;14.90;90.80;;;;;;5052884;28;20025;-51
2022/10/16 21:05:30;;;;;;;7.80;5.10;;;14.80;90.90;;;;;;5053015;28;20040;-52
2022/10/16 21:07:57;;;;;;;8.18;4.97;;;14.90;91.20;;;;;;5052902;28;20485;-48
2022/10/16 21:10:23;;;;;;;10.95;5.50;;;15.00;91.20;;;;;;5051251;28;20036;-48
2022/10/16 21:12:53;;;;;;;10.70;5.28;;;15.00;91.20;;;;;;5052484;28;20041;-51
2022/10/16 21:15:18;;;;;;;6.47;4.50;;;14.90;91.20;;;;;;5052590;28;20025;-51
2022/10/16 21:17:44;;;;;;;9.48;5.30;;;14.80;91.20;;;;;;5052793;28;20037;-52
2022/10/16 21:20:10;;;;;;;8.95;5.47;;;14.80;91.50;;;;;;5052543;28;20100;-49
2022/10/16 21:22:35;;;;;;;10.02;4.78;;;14.70;91.60;;;;;;5052552;28;20025;-50
2022/10/16 21:25:01;;;;;;;6.15;4.05;;;14.70;91.80;;;;;;5052422;28;20036;-50
2022/10/16 21:27:27;;;;;;;7.97;5.22;;;14.70;92.00;;;;;;5052401;28;20104;-51
2022/10/16 21:29:53;;;;;;;7.85;5.20;;;14.70;92.10;;;;;;5052996;28;20465;-49
2022/10/16 21:32:19;;;;;;;8.52;5.05;;;14.60;92.20;;;;;;5052374;28;20032;-52
2022/10/16 21:34:46;;;;;;;10.55;5.03;;;14.70;92.40;;;;;;5052516;28;20036;-49
2022/10/16 21:37:12;;;;;;;7.18;4.68;;;14.70;92.50;;;;;;5052584;28;20437;-49
2022/10/16 21:39:37;;;;;;;8.20;5.15;;;14.70;92.60;;;;;;5055673;28;20021;-49
2022/10/16 21:42:03;;;;;;;7.35;4.47;;;14.60;92.70;;;;;;5056236;28;20021;-50
2022/10/16 21:44:29;;;;;;;12.07;4.80;;;14.60;92.80;;;;;;5056074;28;20053;-49
2022/10/16 21:46:54;;;;;;;6.90;4.32;;;14.50;92.80;;;;;;5056319;28;20069;-52
2022/10/16 21:49:20;;;;;;;10.02;5.70;;;14.40;92.90;;;;;;5056193;28;20025;-50
2022/10/16 21:51:48;;;;;;;10.60;6.18;;;14.40;93.10;;;;;;5055645;28;20049;-47
2022/10/16 21:54:17;;;;;;;11.57;6.78;;;14.50;93.20;;;;;;5056003;28;20017;-50
2022/10/16 21:56:44;;;;;;;11.35;6.18;;;14.40;93.20;;;;;;5055773;28;20013;-51
2022/10/16 21:59:13;;;;;;;11.57;6.68;;;14.40;93.30;;;;;;5055744;28;20021;-52
2022/10/16 22:01:39;;;;;;;8.57;6.13;;;14.30;93.30;;;;;;5055898;28;20033;-51
2022/10/16 22:04:05;;;;;;;12.75;6.05;;;14.30;93.30;;;;;;5055701;28;20029;-49
2022/10/16 22:06:30;;;;;;;10.75;5.50;;;14.30;93.40;;;;;;5055693;28;20029;-50
2022/10/16 22:08:58;;;;;;;14.20;5.53;;;14.30;93.50;;;;;;5055758;28;20039;-49
2022/10/16 22:11:27;;;;;;;8.93;5.45;;;14.20;93.70;;;;;;5055404;28;20542;-48
2022/10/16 22:13:55;;;;;;;7.78;4.93;;;14.20;93.70;;;;;;5055658;28;20021;-49
2022/10/16 22:16:23;;;;;;;6.03;4.70;;;14.10;93.80;;;;;;5055587;28;20473;-51
2022/10/16 22:18:51;;;;;;;8.98;5.30;;;14.20;93.90;;;;;;5055430;28;20052;-51
2022/10/16 22:21:17;;;;;;;8.30;4.95;;;14.10;93.90;;;;;;5055673;28;20036;-49
2022/10/16 22:23:42;;;;;;;7.25;4.93;;;14.20;94.00;;;;;;5055184;28;20029;-50
2022/10/16 22:26:10;;;;;;;18.10;5.43;;;14.20;94.10;;;;;;5055259;28;20021;-50
2022/10/16 22:28:37;;;;;;;8.70;5.20;;;14.20;94.20;;;;;;5055362;28;20112;-50
2022/10/16 22:31:06;;;;;;;9.48;5.47;;;14.20;94.20;;;;;;5053871;28;20078;-49
2022/10/16 22:33:33;;;;;;;11.85;4.90;;;14.20;94.30;;;;;;5053639;28;20038;-49
2022/10/16 22:36:03;;;;;;;6.78;4.97;;;14.20;94.30;;;;;;5055053;28;20063;-51
2022/10/16 22:38:30;;;;;;;10.07;5.38;;;14.30;94.30;;;;;;5055312;28;20053;-49
2022/10/16 22:41:07;;;;;;;9.55;5.40;;;14.20;94.30;;;;;;5054853;28;20029;-51
2022/10/16 22:43:42;;;;;;;9.48;5.18;;;14.20;94.40;;;;;;5054867;28;20024;-49
2022/10/16 22:46:10;;;;;;;8.80;5.18;;;14.20;94.40;;;;;;5055047;28;20052;-49
2022/10/16 22:48:36;;;;;;;8.32;5.85;;;14.20;94.50;;;;;;5054821;28;20029;-49
2022/10/16 22:51:03;;;;;;;9.57;5.60;;;14.20;94.50;;;;;;5054599;28;20443;-48
2022/10/16 22:53:29;;;;;;;8.60;5.90;;;14.20;94.50;;;;;;5054658;28;20362;-49
2022/10/16 22:55:55;;;;;;;8.63;5.85;;;14.20;94.50;;;;;;5054612;28;20021;-49
2022/10/16 22:58:21;;;;;;;6.95;5.18;;;14.20;94.50;;;;;;5054891;28;20512;-51
2022/10/16 23:00:47;;;;;;;10.10;5.00;;;14.20;94.50;;;;;;5054774;28;20052;-50
2022/10/16 23:03:13;;;;;;;9.48;6.22;;;14.10;94.50;;;;;;5054451;28;20029;-50
2022/10/16 23:05:40;;;;;;;9.88;5.85;;;14.10;94.60;;;;;;5054738;28;20563;-49
2022/10/16 23:08:06;;;;;;;10.40;6.07;;;14.10;94.60;;;;;;5054734;28;20036;-48
2022/10/16 23:10:33;;;;;;;12.93;6.28;;;14.10;94.60;;;;;;5054657;28;20032;-48
2022/10/16 23:12:58;;;;;;;10.27;6.22;;;14.20;94.60;;;;;;5054452;28;20035;-52
2022/10/16 23:15:24;;;;;;;8.88;5.68;;;14.20;94.70;;;;;;5053937;28;20021;-48
2022/10/16 23:17:49;;;;;;;14.77;6.13;;;14.20;94.60;;;;;;5054401;28;20075;-49
2022/10/16 23:20:15;;;;;;;10.30;5.53;;;14.20;94.70;;;;;;5054222;28;20021;-48
2022/10/16 23:22:41;;;;;;;11.75;5.00;;;14.20;94.60;;;;;;5054400;28;20025;-52
2022/10/16 23:25:07;;;;;;;8.88;6.20;;;14.30;94.70;;;;;;5054078;28;20048;-48
2022/10/16 23:27:34;;;;;;;8.63;5.47;;;14.30;94.70;;;;;;5054008;28;20032;-49
2022/10/16 23:29:59;;;;;;;6.75;5.50;;;14.30;94.60;;;;;;5054245;28;20025;-49
2022/10/16 23:32:25;;;;;;;13.48;6.53;;;14.30;94.60;;;;;;5052691;28;20025;-48
2022/10/16 23:34:51;;;;;;;10.85;5.90;;;14.30;94.60;;;;;;5054442;28;20086;-48
2022/10/16 23:37:16;;;;;;;10.02;6.38;;;14.30;94.60;;;;;;5055828;28;20021;-48
2022/10/16 23:39:42;;;;;;;8.32;5.13;;;14.30;94.60;;;;;;5055476;28;20028;-50
2022/10/16 23:42:08;;;;;;;14.55;6.57;;;14.30;94.60;;;;;;5055530;28;20017;-50
2022/10/16 23:44:33;;;;;;;12.02;6.60;;;14.20;94.60;;;;;;5055465;28;20032;-49
2022/10/16 23:46:59;;;;;;;12.40;6.72;;;14.20;94.60;;;;;;5056012;28;20170;-48
2022/10/16 23:49:25;;;;;;;18.25;7.63;;;14.20;94.70;;;;;;5055854;28;20476;-51
2022/10/16 23:51:50;;;;;;;7.15;5.20;;;14.30;94.70;;;;;;5055655;28;20041;-48
2022/10/16 23:54:16;;;;;;;8.20;5.40;;;14.20;94.70;;;;;;5056636;28;20121;-49